sensor_id;sensor_type;location;lat;lon;timestamp;temperature;humidity
24217;DHT22;12356;49.386;8.688;2024-03-25T00:02:14;8.20;26.30
24217;DHT22;12356;49.386;8.688;2024-03-25T00:04:45;8.20;25.90
24217;DHT22;12356;49.386;8.688;2024-03-25T00:07:15;8.20;26.00
24217;DHT22;12356;49.386;8.688;2024-03-25T00:09:46;8.20;25.50
24217;DHT22;12356;49.386;8.688;2024-03-25T00:12:16;8.10;25.40
24217;DHT22;12356;49.386;8.688;2024-03-25T00:14:47;8.20;25.70
24217;DHT22;12356;49.386;8.688;2024-03-25T00:17:17;8.20;26.00
24217;DHT22;12356;49.386;8.688;2024-03-25T00:19:50;8.30;25.90
24217;DHT22;12356;49.386;8.688;2024-03-25T00:22:23;8.30;25.70
24217;DHT22;12356;49.386;8.688;2024-03-25T00:24:55;8.30;25.20
24217;DHT22;12356;49.386;8.688;2024-03-25T00:27:26;8.30;25.80
24217;DHT22;12356;49.386;8.688;2024-03-25T00:29:57;8.30;25.30
24217;DHT22;12356;49.386;8.688;2024-03-25T00:32:28;8.20;25.20
24217;DHT22;12356;49.386;8.688;2024-03-25T00:34:58;8.20;25.60
24217;DHT22;12356;49.386;8.688;2024-03-25T00:37:29;8.20;25.70
24217;DHT22;12356;49.386;8.688;2024-03-25T00:39:59;8.20;25.50
24217;DHT22;12356;49.386;8.688;2024-03-25T00:42:30;8.20;25.40
24217;DHT22;12356;49.386;8.688;2024-03-25T00:45:01;8.20;25.50
24217;DHT22;12356;49.386;8.688;2024-03-25T00:47:32;8.10;25.50
24217;DHT22;12356;49.386;8.688;2024-03-25T00:50:03;8.10;25.60
24217;DHT22;12356;49.386;8.688;2024-03-25T00:52:35;8.10;25.90
24217;DHT22;12356;49.386;8.688;2024-03-25T00:55:06;8.10;26.10
24217;DHT22;12356;49.386;8.688;2024-03-25T00:57:38;8.00;26.30
24217;DHT22;12356;49.386;8.688;2024-03-25T01:00:09;8.10;26.30
24217;DHT22;12356;49.386;8.688;2024-03-25T01:02:40;8.00;26.30
24217;DHT22;12356;49.386;8.688;2024-03-25T01:05:11;8.00;26.60
24217;DHT22;12356;49.386;8.688;2024-03-25T01:07:41;8.10;26.40
24217;DHT22;12356;49.386;8.688;2024-03-25T01:10:12;8.00;26.40
24217;DHT22;12356;49.386;8.688;2024-03-25T01:12:42;8.00;26.10
24217;DHT22;12356;49.386;8.688;2024-03-25T01:15:13;7.90;26.00
24217;DHT22;12356;49.386;8.688;2024-03-25T01:17:44;7.90;26.00
24217;DHT22;12356;49.386;8.688;2024-03-25T01:20:14;7.90;26.20
24217;DHT22;12356;49.386;8.688;2024-03-25T01:22:45;7.90;26.60
24217;DHT22;12356;49.386;8.688;2024-03-25T01:25:15;7.90;26.80
24217;DHT22;12356;49.386;8.688;2024-03-25T01:27:46;7.90;26.90
24217;DHT22;12356;49.386;8.688;2024-03-25T01:30:16;7.90;26.90
24217;DHT22;12356;49.386;8.688;2024-03-25T01:32:49;7.90;26.90
24217;DHT22;12356;49.386;8.688;2024-03-25T01:35:20;7.90;27.00
24217;DHT22;12356;49.386;8.688;2024-03-25T01:37:51;7.90;27.00
24217;DHT22;12356;49.386;8.688;2024-03-25T01:40:21;7.90;27.20
24217;DHT22;12356;49.386;8.688;2024-03-25T01:43:03;7.90;27.60
24217;DHT22;12356;49.386;8.688;2024-03-25T01:45:34;7.90;27.70
24217;DHT22;12356;49.386;8.688;2024-03-25T01:48:07;7.90;28.30
24217;DHT22;12356;49.386;8.688;2024-03-25T01:50:42;7.90;27.90
24217;DHT22;12356;49.386;8.688;2024-03-25T01:53:14;7.90;28.10
24217;DHT22;12356;49.386;8.688;2024-03-25T01:55:46;7.80;28.10
24217;DHT22;12356;49.386;8.688;2024-03-25T01:58:18;7.80;28.00
24217;DHT22;12356;49.386;8.688;2024-03-25T02:00:50;7.80;28.20
24217;DHT22;12356;49.386;8.688;2024-03-25T02:03:22;7.90;28.00
24217;DHT22;12356;49.386;8.688;2024-03-25T02:05:58;7.80;27.90
24217;DHT22;12356;49.386;8.688;2024-03-25T02:08:31;7.80;28.00
24217;DHT22;12356;49.386;8.688;2024-03-25T02:11:01;7.80;28.30
24217;DHT22;12356;49.386;8.688;2024-03-25T02:13:32;7.80;28.00
24217;DHT22;12356;49.386;8.688;2024-03-25T02:16:03;7.80;28.00
24217;DHT22;12356;49.386;8.688;2024-03-25T02:18:34;7.80;28.00
24217;DHT22;12356;49.386;8.688;2024-03-25T02:21:05;7.80;28.20
24217;DHT22;12356;49.386;8.688;2024-03-25T02:23:39;7.70;28.20
24217;DHT22;12356;49.386;8.688;2024-03-25T02:26:09;7.70;28.90
24217;DHT22;12356;49.386;8.688;2024-03-25T02:28:40;7.70;29.00
24217;DHT22;12356;49.386;8.688;2024-03-25T02:31:10;7.70;29.50
24217;DHT22;12356;49.386;8.688;2024-03-25T02:33:41;7.60;29.70
24217;DHT22;12356;49.386;8.688;2024-03-25T02:36:12;7.60;29.40
24217;DHT22;12356;49.386;8.688;2024-03-25T02:38:43;7.70;29.50
24217;DHT22;12356;49.386;8.688;2024-03-25T02:41:14;7.60;29.40
24217;DHT22;12356;49.386;8.688;2024-03-25T02:43:44;7.70;29.50
24217;DHT22;12356;49.386;8.688;2024-03-25T02:46:15;7.70;29.50
24217;DHT22;12356;49.386;8.688;2024-03-25T02:48:46;7.70;28.90
24217;DHT22;12356;49.386;8.688;2024-03-25T02:51:16;7.70;29.20
24217;DHT22;12356;49.386;8.688;2024-03-25T02:53:47;7.70;29.60
24217;DHT22;12356;49.386;8.688;2024-03-25T02:56:18;7.70;29.50
24217;DHT22;12356;49.386;8.688;2024-03-25T02:58:48;7.70;29.50
24217;DHT22;12356;49.386;8.688;2024-03-25T03:01:19;7.70;29.50
24217;DHT22;12356;49.386;8.688;2024-03-25T03:03:49;7.60;30.20
24217;DHT22;12356;49.386;8.688;2024-03-25T03:06:20;7.60;30.60
24217;DHT22;12356;49.386;8.688;2024-03-25T03:08:50;7.60;31.50
24217;DHT22;12356;49.386;8.688;2024-03-25T03:11:21;7.50;31.70
24217;DHT22;12356;49.386;8.688;2024-03-25T03:13:51;7.60;31.70
24217;DHT22;12356;49.386;8.688;2024-03-25T03:16:22;7.60;31.10
24217;DHT22;12356;49.386;8.688;2024-03-25T03:18:53;7.60;30.80
24217;DHT22;12356;49.386;8.688;2024-03-25T03:21:23;7.60;30.90
24217;DHT22;12356;49.386;8.688;2024-03-25T03:23:54;7.60;30.60
24217;DHT22;12356;49.386;8.688;2024-03-25T03:26:24;7.60;30.00
24217;DHT22;12356;49.386;8.688;2024-03-25T03:28:58;7.60;29.90
24217;DHT22;12356;49.386;8.688;2024-03-25T03:31:28;7.50;30.10
24217;DHT22;12356;49.386;8.688;2024-03-25T03:33:59;7.50;30.30
24217;DHT22;12356;49.386;8.688;2024-03-25T03:36:30;7.50;30.40
24217;DHT22;12356;49.386;8.688;2024-03-25T03:39:00;7.50;29.90
24217;DHT22;12356;49.386;8.688;2024-03-25T03:41:31;7.50;30.10
24217;DHT22;12356;49.386;8.688;2024-03-25T03:44:02;7.50;30.00
24217;DHT22;12356;49.386;8.688;2024-03-25T03:46:32;7.30;30.00
24217;DHT22;12356;49.386;8.688;2024-03-25T03:49:03;7.20;30.70
24217;DHT22;12356;49.386;8.688;2024-03-25T03:51:33;7.20;31.00
24217;DHT22;12356;49.386;8.688;2024-03-25T03:54:04;7.20;31.40
24217;DHT22;12356;49.386;8.688;2024-03-25T03:56:34;7.20;31.60
24217;DHT22;12356;49.386;8.688;2024-03-25T03:59:05;7.20;31.70
24217;DHT22;12356;49.386;8.688;2024-03-25T04:01:36;7.10;31.60
24217;DHT22;12356;49.386;8.688;2024-03-25T04:04:06;7.10;31.20
24217;DHT22;12356;49.386;8.688;2024-03-25T04:06:37;7.00;31.70
24217;DHT22;12356;49.386;8.688;2024-03-25T04:09:10;7.00;32.00
24217;DHT22;12356;49.386;8.688;2024-03-25T04:11:41;7.00;33.10
24217;DHT22;12356;49.386;8.688;2024-03-25T04:14:11;7.00;33.80
24217;DHT22;12356;49.386;8.688;2024-03-25T04:16:42;7.00;33.50
24217;DHT22;12356;49.386;8.688;2024-03-25T04:19:13;7.10;34.40
24217;DHT22;12356;49.386;8.688;2024-03-25T04:21:43;7.10;33.70
24217;DHT22;12356;49.386;8.688;2024-03-25T04:24:14;7.00;34.90
24217;DHT22;12356;49.386;8.688;2024-03-25T04:26:46;7.10;34.70
24217;DHT22;12356;49.386;8.688;2024-03-25T04:29:16;7.10;34.50
24217;DHT22;12356;49.386;8.688;2024-03-25T04:31:47;7.10;34.60
24217;DHT22;12356;49.386;8.688;2024-03-25T04:34:17;7.20;34.00
24217;DHT22;12356;49.386;8.688;2024-03-25T04:36:49;7.20;33.60
24217;DHT22;12356;49.386;8.688;2024-03-25T04:39:20;7.10;32.90
24217;DHT22;12356;49.386;8.688;2024-03-25T04:41:50;7.00;33.00
24217;DHT22;12356;49.386;8.688;2024-03-25T04:44:21;6.90;33.50
24217;DHT22;12356;49.386;8.688;2024-03-25T04:46:51;7.00;34.30
24217;DHT22;12356;49.386;8.688;2024-03-25T04:49:22;7.00;33.90
24217;DHT22;12356;49.386;8.688;2024-03-25T04:51:52;7.00;33.70
24217;DHT22;12356;49.386;8.688;2024-03-25T04:54:23;7.00;33.10
24217;DHT22;12356;49.386;8.688;2024-03-25T04:56:54;6.90;33.40
24217;DHT22;12356;49.386;8.688;2024-03-25T04:59:25;6.90;33.80
24217;DHT22;12356;49.386;8.688;2024-03-25T05:01:56;6.90;33.70
24217;DHT22;12356;49.386;8.688;2024-03-25T05:04:26;6.90;34.00
24217;DHT22;12356;49.386;8.688;2024-03-25T05:06:57;6.80;34.40
24217;DHT22;12356;49.386;8.688;2024-03-25T05:09:28;6.90;34.80
24217;DHT22;12356;49.386;8.688;2024-03-25T05:11:59;6.90;34.10
24217;DHT22;12356;49.386;8.688;2024-03-25T05:14:29;6.90;33.60
24217;DHT22;12356;49.386;8.688;2024-03-25T05:17:00;6.90;33.50
24217;DHT22;12356;49.386;8.688;2024-03-25T05:19:32;6.90;33.70
24217;DHT22;12356;49.386;8.688;2024-03-25T05:22:03;6.90;34.20
24217;DHT22;12356;49.386;8.688;2024-03-25T05:24:34;6.80;34.30
24217;DHT22;12356;49.386;8.688;2024-03-25T05:27:04;6.90;34.20
24217;DHT22;12356;49.386;8.688;2024-03-25T05:29:35;6.90;33.50
24217;DHT22;12356;49.386;8.688;2024-03-25T05:32:06;6.80;33.90
24217;DHT22;12356;49.386;8.688;2024-03-25T05:34:36;6.70;34.10
24217;DHT22;12356;49.386;8.688;2024-03-25T05:37:07;6.80;34.60
24217;DHT22;12356;49.386;8.688;2024-03-25T05:39:38;6.70;34.80
24217;DHT22;12356;49.386;8.688;2024-03-25T05:42:08;6.70;35.20
24217;DHT22;12356;49.386;8.688;2024-03-25T05:44:39;6.70;34.90
24217;DHT22;12356;49.386;8.688;2024-03-25T05:47:09;6.70;35.80
24217;DHT22;12356;49.386;8.688;2024-03-25T05:49:40;6.70;36.20
24217;DHT22;12356;49.386;8.688;2024-03-25T05:52:11;6.70;36.20
24217;DHT22;12356;49.386;8.688;2024-03-25T05:54:41;6.70;36.20
24217;DHT22;12356;49.386;8.688;2024-03-25T05:57:12;6.60;35.70
24217;DHT22;12356;49.386;8.688;2024-03-25T05:59:42;6.70;36.50
24217;DHT22;12356;49.386;8.688;2024-03-25T06:02:13;6.70;36.00
24217;DHT22;12356;49.386;8.688;2024-03-25T06:04:44;6.60;35.90
24217;DHT22;12356;49.386;8.688;2024-03-25T06:07:14;6.70;37.00
24217;DHT22;12356;49.386;8.688;2024-03-25T06:09:45;6.70;37.30
24217;DHT22;12356;49.386;8.688;2024-03-25T06:12:15;6.80;37.00
24217;DHT22;12356;49.386;8.688;2024-03-25T06:14:46;6.70;36.40
24217;DHT22;12356;49.386;8.688;2024-03-25T06:17:17;6.70;36.70
24217;DHT22;12356;49.386;8.688;2024-03-25T06:19:47;6.80;36.50
24217;DHT22;12356;49.386;8.688;2024-03-25T06:22:18;6.80;36.00
24217;DHT22;12356;49.386;8.688;2024-03-25T06:24:48;6.80;36.30
24217;DHT22;12356;49.386;8.688;2024-03-25T06:27:20;6.80;36.30
24217;DHT22;12356;49.386;8.688;2024-03-25T06:29:51;6.80;36.00
24217;DHT22;12356;49.386;8.688;2024-03-25T06:32:42;6.80;36.50
24217;DHT22;12356;49.386;8.688;2024-03-25T06:35:31;6.80;36.80
24217;DHT22;12356;49.386;8.688;2024-03-25T06:38:02;6.90;36.00
24217;DHT22;12356;49.386;8.688;2024-03-25T06:40:32;6.90;36.60
24217;DHT22;12356;49.386;8.688;2024-03-25T06:43:03;6.90;36.70
24217;DHT22;12356;49.386;8.688;2024-03-25T06:45:34;6.90;35.70
24217;DHT22;12356;49.386;8.688;2024-03-25T06:48:05;6.90;36.00
24217;DHT22;12356;49.386;8.688;2024-03-25T06:50:36;6.90;36.00
24217;DHT22;12356;49.386;8.688;2024-03-25T06:53:07;6.90;36.00
24217;DHT22;12356;49.386;8.688;2024-03-25T06:55:37;6.90;36.60
24217;DHT22;12356;49.386;8.688;2024-03-25T06:58:08;7.00;36.90
24217;DHT22;12356;49.386;8.688;2024-03-25T07:00:38;7.00;36.10
24217;DHT22;12356;49.386;8.688;2024-03-25T07:03:09;7.10;35.80
24217;DHT22;12356;49.386;8.688;2024-03-25T07:05:40;7.10;36.20
24217;DHT22;12356;49.386;8.688;2024-03-25T07:08:10;7.10;36.20
24217;DHT22;12356;49.386;8.688;2024-03-25T07:10:42;7.10;35.70
24217;DHT22;12356;49.386;8.688;2024-03-25T07:13:13;7.10;35.80
24217;DHT22;12356;49.386;8.688;2024-03-25T07:15:44;7.20;36.20
24217;DHT22;12356;49.386;8.688;2024-03-25T07:18:15;7.20;36.20
24217;DHT22;12356;49.386;8.688;2024-03-25T07:20:45;7.20;36.10
24217;DHT22;12356;49.386;8.688;2024-03-25T07:23:16;7.10;35.80
24217;DHT22;12356;49.386;8.688;2024-03-25T07:25:46;7.10;36.20
24217;DHT22;12356;49.386;8.688;2024-03-25T07:28:17;7.30;36.50
24217;DHT22;12356;49.386;8.688;2024-03-25T07:30:50;7.30;35.80
24217;DHT22;12356;49.386;8.688;2024-03-25T07:33:20;7.40;36.40
24217;DHT22;12356;49.386;8.688;2024-03-25T07:35:51;7.40;35.40
24217;DHT22;12356;49.386;8.688;2024-03-25T07:38:21;7.50;35.60
24217;DHT22;12356;49.386;8.688;2024-03-25T07:40:52;7.50;35.00
24217;DHT22;12356;49.386;8.688;2024-03-25T07:43:23;7.60;35.80
24217;DHT22;12356;49.386;8.688;2024-03-25T07:45:53;7.70;35.30
24217;DHT22;12356;49.386;8.688;2024-03-25T07:48:24;7.70;34.20
24217;DHT22;12356;49.386;8.688;2024-03-25T07:50:54;7.70;33.50
24217;DHT22;12356;49.386;8.688;2024-03-25T07:53:25;7.80;32.70
24217;DHT22;12356;49.386;8.688;2024-03-25T07:55:55;7.90;32.20
24217;DHT22;12356;49.386;8.688;2024-03-25T07:58:26;7.90;29.90
24217;DHT22;12356;49.386;8.688;2024-03-25T08:00:56;8.00;29.90
24217;DHT22;12356;49.386;8.688;2024-03-25T08:03:27;8.00;28.70
24217;DHT22;12356;49.386;8.688;2024-03-25T08:05:57;8.00;29.20
24217;DHT22;12356;49.386;8.688;2024-03-25T08:08:28;8.00;28.00
24217;DHT22;12356;49.386;8.688;2024-03-25T08:10:59;8.10;28.40
24217;DHT22;12356;49.386;8.688;2024-03-25T08:13:30;8.20;28.90
24217;DHT22;12356;49.386;8.688;2024-03-25T08:16:00;8.30;28.00
24217;DHT22;12356;49.386;8.688;2024-03-25T08:18:31;8.40;27.50
24217;DHT22;12356;49.386;8.688;2024-03-25T08:21:01;8.40;25.20
24217;DHT22;12356;49.386;8.688;2024-03-25T08:23:32;8.40;24.00
24217;DHT22;12356;49.386;8.688;2024-03-25T08:26:03;8.40;24.30
24217;DHT22;12356;49.386;8.688;2024-03-25T08:28:33;8.40;24.00
24217;DHT22;12356;49.386;8.688;2024-03-25T08:31:04;8.40;24.00
24217;DHT22;12356;49.386;8.688;2024-03-25T08:33:34;8.50;24.10
24217;DHT22;12356;49.386;8.688;2024-03-25T08:36:05;8.60;23.30
24217;DHT22;12356;49.386;8.688;2024-03-25T08:38:36;8.70;22.80
24217;DHT22;12356;49.386;8.688;2024-03-25T08:41:06;8.80;21.00
24217;DHT22;12356;49.386;8.688;2024-03-25T08:43:37;8.90;18.20
24217;DHT22;12356;49.386;8.688;2024-03-25T08:46:07;8.80;17.30
24217;DHT22;12356;49.386;8.688;2024-03-25T08:48:38;8.90;16.30
24217;DHT22;12356;49.386;8.688;2024-03-25T08:51:08;9.00;17.60
24217;DHT22;12356;49.386;8.688;2024-03-25T08:53:39;9.10;18.60
24217;DHT22;12356;49.386;8.688;2024-03-25T08:56:09;9.10;19.00
24217;DHT22;12356;49.386;8.688;2024-03-25T08:58:40;9.20;16.10
24217;DHT22;12356;49.386;8.688;2024-03-25T09:01:10;9.30;15.30
24217;DHT22;12356;49.386;8.688;2024-03-25T09:03:44;9.30;12.10
24217;DHT22;12356;49.386;8.688;2024-03-25T09:06:15;9.30;11.20
24217;DHT22;12356;49.386;8.688;2024-03-25T09:08:46;9.40;9.70
24217;DHT22;12356;49.386;8.688;2024-03-25T09:11:36;9.40;8.40
24217;DHT22;12356;49.386;8.688;2024-03-25T09:14:06;9.40;3.90
24217;DHT22;12356;49.386;8.688;2024-03-25T09:16:37;9.40;5.00
24217;DHT22;12356;49.386;8.688;2024-03-25T09:19:07;9.40;3.30
24217;DHT22;12356;49.386;8.688;2024-03-25T09:21:38;9.40;2.10
24217;DHT22;12356;49.386;8.688;2024-03-25T09:24:08;9.50;2.50
24217;DHT22;12356;49.386;8.688;2024-03-25T09:26:39;9.50;3.00
24217;DHT22;12356;49.386;8.688;2024-03-25T09:29:09;9.50;2.60
24217;DHT22;12356;49.386;8.688;2024-03-25T09:31:42;9.50;1.00
24217;DHT22;12356;49.386;8.688;2024-03-25T09:34:13;9.50;1.00
24217;DHT22;12356;49.386;8.688;2024-03-25T09:36:43;9.50;1.00
24217;DHT22;12356;49.386;8.688;2024-03-25T09:39:14;9.50;1.00
24217;DHT22;12356;49.386;8.688;2024-03-25T09:41:48;9.50;1.00
24217;DHT22;12356;49.386;8.688;2024-03-25T09:44:25;9.50;1.00
24217;DHT22;12356;49.386;8.688;2024-03-25T09:46:55;9.60;1.00
24217;DHT22;12356;49.386;8.688;2024-03-25T09:49:27;9.60;1.00
24217;DHT22;12356;49.386;8.688;2024-03-25T09:51:59;9.70;1.00
24217;DHT22;12356;49.386;8.688;2024-03-25T09:54:29;9.70;1.00
24217;DHT22;12356;49.386;8.688;2024-03-25T09:57:01;9.90;1.00
24217;DHT22;12356;49.386;8.688;2024-03-25T09:59:32;9.80;1.00
24217;DHT22;12356;49.386;8.688;2024-03-25T10:02:03;9.80;1.00
24217;DHT22;12356;49.386;8.688;2024-03-25T10:04:34;9.80;1.00
24217;DHT22;12356;49.386;8.688;2024-03-25T10:07:09;9.80;1.00
24217;DHT22;12356;49.386;8.688;2024-03-25T10:09:40;9.80;1.00
24217;DHT22;12356;49.386;8.688;2024-03-25T10:12:12;9.90;1.00
24217;DHT22;12356;49.386;8.688;2024-03-25T10:14:43;9.90;1.00
24217;DHT22;12356;49.386;8.688;2024-03-25T10:17:14;10.00;1.00
24217;DHT22;12356;49.386;8.688;2024-03-25T10:19:44;10.00;1.00
24217;DHT22;12356;49.386;8.688;2024-03-25T10:22:15;10.10;1.00
24217;DHT22;12356;49.386;8.688;2024-03-25T10:24:46;10.10;1.00
24217;DHT22;12356;49.386;8.688;2024-03-25T10:27:23;10.10;1.00
24217;DHT22;12356;49.386;8.688;2024-03-25T10:29:54;10.10;1.00
24217;DHT22;12356;49.386;8.688;2024-03-25T10:32:27;10.20;1.00
24217;DHT22;12356;49.386;8.688;2024-03-25T10:34:59;10.10;1.00
24217;DHT22;12356;49.386;8.688;2024-03-25T10:37:31;10.20;1.00
24217;DHT22;12356;49.386;8.688;2024-03-25T10:40:04;10.20;1.00
24217;DHT22;12356;49.386;8.688;2024-03-25T10:42:38;10.30;1.00
24217;DHT22;12356;49.386;8.688;2024-03-25T10:45:09;10.30;1.00
24217;DHT22;12356;49.386;8.688;2024-03-25T10:47:41;10.40;1.00
24217;DHT22;12356;49.386;8.688;2024-03-25T10:50:12;10.40;1.00
24217;DHT22;12356;49.386;8.688;2024-03-25T10:52:46;10.40;1.00
24217;DHT22;12356;49.386;8.688;2024-03-25T10:55:17;10.40;1.00
24217;DHT22;12356;49.386;8.688;2024-03-25T10:57:48;10.40;1.00
24217;DHT22;12356;49.386;8.688;2024-03-25T11:00:19;10.50;1.00
24217;DHT22;12356;49.386;8.688;2024-03-25T11:02:51;10.60;1.00
24217;DHT22;12356;49.386;8.688;2024-03-25T11:05:23;10.70;1.00
24217;DHT22;12356;49.386;8.688;2024-03-25T11:07:54;10.70;1.00
24217;DHT22;12356;49.386;8.688;2024-03-25T11:10:30;10.80;1.00
24217;DHT22;12356;49.386;8.688;2024-03-25T11:13:01;10.80;1.00
24217;DHT22;12356;49.386;8.688;2024-03-25T11:15:41;10.70;1.00
24217;DHT22;12356;49.386;8.688;2024-03-25T11:18:16;10.80;1.00
24217;DHT22;12356;49.386;8.688;2024-03-25T11:20:47;10.80;1.00
24217;DHT22;12356;49.386;8.688;2024-03-25T11:23:18;10.90;1.00
24217;DHT22;12356;49.386;8.688;2024-03-25T11:25:55;10.80;1.00
24217;DHT22;12356;49.386;8.688;2024-03-25T11:28:28;10.90;1.00
24217;DHT22;12356;49.386;8.688;2024-03-25T11:30:59;10.90;1.00
24217;DHT22;12356;49.386;8.688;2024-03-25T11:33:29;10.90;1.00
24217;DHT22;12356;49.386;8.688;2024-03-25T11:36:00;11.00;1.00
24217;DHT22;12356;49.386;8.688;2024-03-25T11:38:30;11.00;1.00
24217;DHT22;12356;49.386;8.688;2024-03-25T11:41:01;11.10;1.00
24217;DHT22;12356;49.386;8.688;2024-03-25T11:43:32;11.10;1.00
24217;DHT22;12356;49.386;8.688;2024-03-25T11:46:03;11.10;1.00
24217;DHT22;12356;49.386;8.688;2024-03-25T11:48:34;11.20;1.00
24217;DHT22;12356;49.386;8.688;2024-03-25T11:51:04;11.20;1.00
24217;DHT22;12356;49.386;8.688;2024-03-25T11:53:35;11.20;1.00
24217;DHT22;12356;49.386;8.688;2024-03-25T11:56:05;11.20;1.00
24217;DHT22;12356;49.386;8.688;2024-03-25T11:58:36;11.10;1.00
24217;DHT22;12356;49.386;8.688;2024-03-25T12:01:07;11.10;1.00
24217;DHT22;12356;49.386;8.688;2024-03-25T12:03:40;11.10;1.00
24217;DHT22;12356;49.386;8.688;2024-03-25T12:06:12;11.20;1.00
24217;DHT22;12356;49.386;8.688;2024-03-25T12:08:42;11.30;1.00
24217;DHT22;12356;49.386;8.688;2024-03-25T12:11:36;11.40;1.00
24217;DHT22;12356;49.386;8.688;2024-03-25T12:14:07;11.40;1.00
24217;DHT22;12356;49.386;8.688;2024-03-25T12:16:37;11.30;1.00
24217;DHT22;12356;49.386;8.688;2024-03-25T12:19:08;11.30;1.00
24217;DHT22;12356;49.386;8.688;2024-03-25T12:21:39;11.40;1.00
24217;DHT22;12356;49.386;8.688;2024-03-25T12:24:11;11.40;1.00
24217;DHT22;12356;49.386;8.688;2024-03-25T12:26:41;11.50;1.00
24217;DHT22;12356;49.386;8.688;2024-03-25T12:29:13;11.60;1.00
24217;DHT22;12356;49.386;8.688;2024-03-25T12:31:56;11.70;1.00
24217;DHT22;12356;49.386;8.688;2024-03-25T12:34:26;11.70;1.00
24217;DHT22;12356;49.386;8.688;2024-03-25T12:37:01;11.70;1.00
24217;DHT22;12356;49.386;8.688;2024-03-25T12:39:34;11.80;1.00
24217;DHT22;12356;49.386;8.688;2024-03-25T12:42:07;11.90;1.00
24217;DHT22;12356;49.386;8.688;2024-03-25T12:44:37;12.10;1.00
24217;DHT22;12356;49.386;8.688;2024-03-25T12:47:08;12.10;1.00
24217;DHT22;12356;49.386;8.688;2024-03-25T12:49:38;12.10;1.00
24217;DHT22;12356;49.386;8.688;2024-03-25T12:52:09;12.20;1.00
24217;DHT22;12356;49.386;8.688;2024-03-25T12:54:40;12.20;1.00
24217;DHT22;12356;49.386;8.688;2024-03-25T12:57:12;12.20;1.00
24217;DHT22;12356;49.386;8.688;2024-03-25T12:59:43;12.10;1.00
24217;DHT22;12356;49.386;8.688;2024-03-25T13:02:14;12.00;1.00
24217;DHT22;12356;49.386;8.688;2024-03-25T13:04:44;11.90;1.00
24217;DHT22;12356;49.386;8.688;2024-03-25T13:07:15;12.00;1.00
24217;DHT22;12356;49.386;8.688;2024-03-25T13:09:45;12.10;1.00
24217;DHT22;12356;49.386;8.688;2024-03-25T13:12:16;12.20;1.00
24217;DHT22;12356;49.386;8.688;2024-03-25T13:14:46;12.20;1.00
24217;DHT22;12356;49.386;8.688;2024-03-25T13:17:17;12.30;1.00
24217;DHT22;12356;49.386;8.688;2024-03-25T13:19:47;12.40;1.00
24217;DHT22;12356;49.386;8.688;2024-03-25T13:22:18;12.60;1.00
24217;DHT22;12356;49.386;8.688;2024-03-25T13:24:48;12.70;1.00
24217;DHT22;12356;49.386;8.688;2024-03-25T13:27:20;12.70;1.00
24217;DHT22;12356;49.386;8.688;2024-03-25T13:29:51;12.70;1.00
24217;DHT22;12356;49.386;8.688;2024-03-25T13:32:23;12.80;1.00
24217;DHT22;12356;49.386;8.688;2024-03-25T13:34:54;12.80;1.00
24217;DHT22;12356;49.386;8.688;2024-03-25T13:37:24;12.80;1.00
24217;DHT22;12356;49.386;8.688;2024-03-25T13:39:55;12.90;1.00
24217;DHT22;12356;49.386;8.688;2024-03-25T13:42:25;12.90;1.00
24217;DHT22;12356;49.386;8.688;2024-03-25T13:44:56;12.90;1.00
24217;DHT22;12356;49.386;8.688;2024-03-25T13:47:26;12.90;1.00
24217;DHT22;12356;49.386;8.688;2024-03-25T13:50:01;12.90;1.00
24217;DHT22;12356;49.386;8.688;2024-03-25T13:52:32;12.90;1.00
24217;DHT22;12356;49.386;8.688;2024-03-25T13:55:03;12.80;1.00
24217;DHT22;12356;49.386;8.688;2024-03-25T13:57:33;12.80;1.00
24217;DHT22;12356;49.386;8.688;2024-03-25T14:00:04;12.80;1.00
24217;DHT22;12356;49.386;8.688;2024-03-25T14:02:38;12.90;1.00
24217;DHT22;12356;49.386;8.688;2024-03-25T14:05:09;12.90;1.00
24217;DHT22;12356;49.386;8.688;2024-03-25T14:07:40;12.90;1.00
24217;DHT22;12356;49.386;8.688;2024-03-25T14:10:12;12.90;1.00
24217;DHT22;12356;49.386;8.688;2024-03-25T14:12:42;12.90;1.00
24217;DHT22;12356;49.386;8.688;2024-03-25T14:15:13;12.90;1.00
24217;DHT22;12356;49.386;8.688;2024-03-25T14:17:43;12.90;1.00
24217;DHT22;12356;49.386;8.688;2024-03-25T14:20:14;12.80;1.00
24217;DHT22;12356;49.386;8.688;2024-03-25T14:22:44;12.90;1.00
24217;DHT22;12356;49.386;8.688;2024-03-25T14:25:15;12.90;1.00
24217;DHT22;12356;49.386;8.688;2024-03-25T14:27:46;12.90;1.00
24217;DHT22;12356;49.386;8.688;2024-03-25T14:30:16;13.00;1.00
24217;DHT22;12356;49.386;8.688;2024-03-25T14:32:47;13.00;1.00
24217;DHT22;12356;49.386;8.688;2024-03-25T14:35:19;13.00;1.00
24217;DHT22;12356;49.386;8.688;2024-03-25T14:37:50;13.10;1.00
24217;DHT22;12356;49.386;8.688;2024-03-25T14:40:20;13.10;1.00
24217;DHT22;12356;49.386;8.688;2024-03-25T14:42:51;13.00;1.00
24217;DHT22;12356;49.386;8.688;2024-03-25T14:45:21;13.00;1.00
24217;DHT22;12356;49.386;8.688;2024-03-25T14:47:52;12.90;1.00
24217;DHT22;12356;49.386;8.688;2024-03-25T14:50:22;13.00;1.00
24217;DHT22;12356;49.386;8.688;2024-03-25T14:52:53;13.10;1.00
24217;DHT22;12356;49.386;8.688;2024-03-25T14:55:23;13.10;1.00
24217;DHT22;12356;49.386;8.688;2024-03-25T14:57:54;13.10;1.00
24217;DHT22;12356;49.386;8.688;2024-03-25T15:00:24;13.00;1.00
24217;DHT22;12356;49.386;8.688;2024-03-25T15:02:55;12.90;1.00
24217;DHT22;12356;49.386;8.688;2024-03-25T15:05:25;13.00;1.00
24217;DHT22;12356;49.386;8.688;2024-03-25T15:07:56;13.00;1.00
24217;DHT22;12356;49.386;8.688;2024-03-25T15:10:26;13.00;1.00
24217;DHT22;12356;49.386;8.688;2024-03-25T15:12:57;12.90;1.00
24217;DHT22;12356;49.386;8.688;2024-03-25T15:15:28;12.90;1.00
24217;DHT22;12356;49.386;8.688;2024-03-25T15:18:01;12.90;1.00
24217;DHT22;12356;49.386;8.688;2024-03-25T15:20:32;12.90;1.00
24217;DHT22;12356;49.386;8.688;2024-03-25T15:23:02;12.80;1.00
24217;DHT22;12356;49.386;8.688;2024-03-25T15:25:33;12.80;1.00
24217;DHT22;12356;49.386;8.688;2024-03-25T15:28:04;12.80;1.00
24217;DHT22;12356;49.386;8.688;2024-03-25T15:30:34;12.80;1.00
24217;DHT22;12356;49.386;8.688;2024-03-25T15:33:05;12.80;1.00
24217;DHT22;12356;49.386;8.688;2024-03-25T15:35:36;12.70;1.00
24217;DHT22;12356;49.386;8.688;2024-03-25T15:38:06;12.80;1.00
24217;DHT22;12356;49.386;8.688;2024-03-25T15:40:37;12.80;1.00
24217;DHT22;12356;49.386;8.688;2024-03-25T15:43:07;12.80;1.00
24217;DHT22;12356;49.386;8.688;2024-03-25T15:45:38;12.80;1.00
24217;DHT22;12356;49.386;8.688;2024-03-25T15:48:08;12.80;1.00
24217;DHT22;12356;49.386;8.688;2024-03-25T15:50:40;12.70;1.00
24217;DHT22;12356;49.386;8.688;2024-03-25T15:53:10;12.70;1.00
24217;DHT22;12356;49.386;8.688;2024-03-25T15:55:42;12.70;1.00
24217;DHT22;12356;49.386;8.688;2024-03-25T15:58:12;12.60;1.00
24217;DHT22;12356;49.386;8.688;2024-03-25T16:00:43;12.50;1.00
24217;DHT22;12356;49.386;8.688;2024-03-25T16:03:13;12.50;1.00
24217;DHT22;12356;49.386;8.688;2024-03-25T16:05:44;12.50;1.00
24217;DHT22;12356;49.386;8.688;2024-03-25T16:08:15;12.50;1.00
24217;DHT22;12356;49.386;8.688;2024-03-25T16:10:45;12.50;1.00
24217;DHT22;12356;49.386;8.688;2024-03-25T16:13:16;12.50;1.00